sensor_id;sensor_type;location;lat;lon;timestamp;pressure;altitude;pressure_sealevel;temperature;humidity
63285;BME280;49409;55.708;37.522;2023-03-13T00:01:36;97940.34;;;2.22;48.47
63285;BME280;49409;55.708;37.522;2023-03-13T00:04:01;97954.25;;;2.28;48.45
63285;BME280;49409;55.708;37.522;2023-03-13T00:06:31;97954.63;;;2.30;48.78
63285;BME280;49409;55.708;37.522;2023-03-13T00:08:57;97950.34;;;2.36;47.92
63285;BME280;49409;55.708;37.522;2023-03-13T00:11:24;97959.63;;;2.35;47.72
63285;BME280;49409;55.708;37.522;2023-03-13T00:13:52;97958.50;;;2.29;48.24
63285;BME280;49409;55.708;37.522;2023-03-13T00:16:18;97963.53;;;2.30;48.51
63285;BME280;49409;55.708;37.522;2023-03-13T00:18:44;97969.72;;;2.34;48.07
63285;BME280;49409;55.708;37.522;2023-03-13T00:21:10;97970.94;;;2.26;47.78
63285;BME280;49409;55.708;37.522;2023-03-13T00:23:36;97982.97;;;2.22;47.94
63285;BME280;49409;55.708;37.522;2023-03-13T00:26:03;97976.00;;;2.21;48.42
63285;BME280;49409;55.708;37.522;2023-03-13T00:28:30;97987.59;;;2.25;48.18
63285;BME280;49409;55.708;37.522;2023-03-13T00:33:27;97989.16;;;2.26;48.10
63285;BME280;49409;55.708;37.522;2023-03-13T00:35:56;97993.41;;;2.27;48.23
63285;BME280;49409;55.708;37.522;2023-03-13T00:38:21;97996.88;;;2.31;48.52
63285;BME280;49409;55.708;37.522;2023-03-13T00:40:47;98001.53;;;2.30;47.90
63285;BME280;49409;55.708;37.522;2023-03-13T00:43:12;98010.13;;;2.25;48.13
63285;BME280;49409;55.708;37.522;2023-03-13T00:45:37;98011.63;;;2.30;48.33
63285;BME280;49409;55.708;37.522;2023-03-13T00:48:03;98021.31;;;2.31;47.64
63285;BME280;49409;55.708;37.522;2023-03-13T00:50:28;98017.84;;;2.27;47.73
63285;BME280;49409;55.708;37.522;2023-03-13T00:52:53;98020.16;;;2.32;47.73
63285;BME280;49409;55.708;37.522;2023-03-13T00:55:19;98016.25;;;2.36;48.17
63285;BME280;49409;55.708;37.522;2023-03-13T00:57:44;98018.56;;;2.38;48.26
63285;BME280;49409;55.708;37.522;2023-03-13T01:00:11;98031.00;;;2.39;47.75
63285;BME280;49409;55.708;37.522;2023-03-13T01:02:40;98041.03;;;2.42;48.43
63285;BME280;49409;55.708;37.522;2023-03-13T01:05:05;98045.31;;;2.43;47.99
63285;BME280;49409;55.708;37.522;2023-03-13T01:07:31;98049.19;;;2.46;47.83
63285;BME280;49409;55.708;37.522;2023-03-13T01:09:56;98058.13;;;2.39;47.69
63285;BME280;49409;55.708;37.522;2023-03-13T01:12:21;98062.03;;;2.31;48.08
63285;BME280;49409;55.708;37.522;2023-03-13T01:14:48;98067.47;;;2.27;48.23
63285;BME280;49409;55.708;37.522;2023-03-13T01:17:13;98066.69;;;2.27;47.83
63285;BME280;49409;55.708;37.522;2023-03-13T01:19:39;98075.22;;;2.29;47.74
63285;BME280;49409;55.708;37.522;2023-03-13T01:22:04;98074.50;;;2.14;47.06
63285;BME280;49409;55.708;37.522;2023-03-13T01:24:29;98086.91;;;2.04;47.99
63285;BME280;49409;55.708;37.522;2023-03-13T01:26:55;98093.91;;;1.98;47.96
63285;BME280;49409;55.708;37.522;2023-03-13T01:29:20;98087.72;;;1.97;48.26
63285;BME280;49409;55.708;37.522;2023-03-13T01:31:45;98102.44;;;1.93;48.53
63285;BME280;49409;55.708;37.522;2023-03-13T01:34:11;98105.56;;;1.88;48.25
63285;BME280;49409;55.708;37.522;2023-03-13T01:36:36;98110.59;;;1.86;48.16
63285;BME280;49409;55.708;37.522;2023-03-13T01:39:02;98113.31;;;1.86;48.53
63285;BME280;49409;55.708;37.522;2023-03-13T01:41:27;98116.03;;;1.82;48.10
63285;BME280;49409;55.708;37.522;2023-03-13T01:43:53;98125.31;;;1.77;48.38
63285;BME280;49409;55.708;37.522;2023-03-13T01:46:22;98128.03;;;1.70;48.15
63285;BME280;49409;55.708;37.522;2023-03-13T01:51:39;98144.69;;;1.58;48.17
63285;BME280;49409;55.708;37.522;2023-03-13T01:56:33;98157.84;;;1.49;48.52
63285;BME280;49409;55.708;37.522;2023-03-13T01:59:00;98157.06;;;1.45;48.32
63285;BME280;49409;55.708;37.522;2023-03-13T02:01:26;98160.53;;;1.45;48.51
63285;BME280;49409;55.708;37.522;2023-03-13T02:03:51;98170.25;;;1.46;48.22
63285;BME280;49409;55.708;37.522;2023-03-13T02:06:18;98174.47;;;1.44;48.60
63285;BME280;49409;55.708;37.522;2023-03-13T02:08:51;98175.25;;;1.41;48.46
63285;BME280;49409;55.708;37.522;2023-03-13T02:11:21;98180.66;;;1.37;48.29
63285;BME280;49409;55.708;37.522;2023-03-13T02:13:49;98179.88;;;1.33;48.51
63285;BME280;49409;55.708;37.522;2023-03-13T02:16:15;98183.75;;;1.32;48.59
63285;BME280;49409;55.708;37.522;2023-03-13T02:18:40;98189.16;;;1.28;48.60
63285;BME280;49409;55.708;37.522;2023-03-13T02:21:10;98196.50;;;1.28;48.78
63285;BME280;49409;55.708;37.522;2023-03-13T02:23:40;98210.44;;;1.26;48.43
63285;BME280;49409;55.708;37.522;2023-03-13T02:26:09;98200.78;;;1.25;48.42
63285;BME280;49409;55.708;37.522;2023-03-13T02:28:34;98211.56;;;1.18;48.57
63285;BME280;49409;55.708;37.522;2023-03-13T02:31:03;98213.91;;;1.19;48.94
63285;BME280;49409;55.708;37.522;2023-03-13T02:33:30;98212.75;;;1.17;48.42
63285;BME280;49409;55.708;37.522;2023-03-13T02:35:56;98228.63;;;1.15;48.61
63285;BME280;49409;55.708;37.522;2023-03-13T02:38:24;98226.28;;;1.13;48.95
63285;BME280;49409;55.708;37.522;2023-03-13T02:40:50;98239.41;;;1.08;48.66
63285;BME280;49409;55.708;37.522;2023-03-13T02:43:21;98236.69;;;1.04;48.59
63285;BME280;49409;55.708;37.522;2023-03-13T02:46:08;98242.09;;;1.04;48.56
63285;BME280;49409;55.708;37.522;2023-03-13T02:48:38;98241.34;;;1.04;48.43
63285;BME280;49409;55.708;37.522;2023-03-13T02:51:05;98249.06;;;1.02;48.49
63285;BME280;49409;55.708;37.522;2023-03-13T02:53:33;98260.66;;;0.98;48.63
63285;BME280;49409;55.708;37.522;2023-03-13T02:55:59;98259.13;;;1.01;48.78
63285;BME280;49409;55.708;37.522;2023-03-13T02:58:25;98257.97;;;1.06;48.58
63285;BME280;49409;55.708;37.522;2023-03-13T03:00:50;98271.91;;;1.08;48.37
63285;BME280;49409;55.708;37.522;2023-03-13T03:03:16;98273.09;;;1.07;48.21
63285;BME280;49409;55.708;37.522;2023-03-13T03:05:41;98267.25;;;1.01;48.63
63285;BME280;49409;55.708;37.522;2023-03-13T03:08:07;98269.16;;;0.97;48.50
63285;BME280;49409;55.708;37.522;2023-03-13T03:10:34;98276.09;;;0.94;48.69
63285;BME280;49409;55.708;37.522;2023-03-13T03:12:59;98285.00;;;0.91;48.46
63285;BME280;49409;55.708;37.522;2023-03-13T03:15:25;98284.22;;;0.94;48.52
63285;BME280;49409;55.708;37.522;2023-03-13T03:17:50;98291.22;;;0.95;48.35
63285;BME280;49409;55.708;37.522;2023-03-13T03:20:15;98298.94;;;0.93;48.40
63285;BME280;49409;55.708;37.522;2023-03-13T03:22:40;98305.91;;;0.94;48.42
63285;BME280;49409;55.708;37.522;2023-03-13T03:25:06;98309.78;;;0.93;48.40
63285;BME280;49409;55.708;37.522;2023-03-13T03:27:33;98303.53;;;0.86;48.49
63285;BME280;49409;55.708;37.522;2023-03-13T03:29:58;98308.94;;;0.82;48.68
63285;BME280;49409;55.708;37.522;2023-03-13T03:32:23;98310.88;;;0.82;48.59
63285;BME280;49409;55.708;37.522;2023-03-13T03:34:49;98316.66;;;0.80;48.48
63285;BME280;49409;55.708;37.522;2023-03-13T03:37:14;98314.34;;;0.82;48.46
63285;BME280;49409;55.708;37.522;2023-03-13T03:39:39;98308.06;;;0.71;48.62
63285;BME280;49409;55.708;37.522;2023-03-13T03:42:05;98327.41;;;0.73;48.59
63285;BME280;49409;55.708;37.522;2023-03-13T03:44:30;98334.41;;;0.74;48.23
63285;BME280;49409;55.708;37.522;2023-03-13T03:46:55;98325.88;;;0.72;48.53
63285;BME280;49409;55.708;37.522;2023-03-13T03:49:21;98335.53;;;0.69;48.21
63285;BME280;49409;55.708;37.522;2023-03-13T03:51:46;98331.31;;;0.72;48.46
63285;BME280;49409;55.708;37.522;2023-03-13T03:54:12;98333.25;;;0.75;48.56
63285;BME280;49409;55.708;37.522;2023-03-13T03:56:37;98343.28;;;0.74;48.54
63285;BME280;49409;55.708;37.522;2023-03-13T03:59:03;98353.72;;;0.72;48.41
63285;BME280;49409;55.708;37.522;2023-03-13T04:01:28;98358.31;;;0.65;48.30
63285;BME280;49409;55.708;37.522;2023-03-13T04:03:53;98355.97;;;0.59;48.57
63285;BME280;49409;55.708;37.522;2023-03-13T04:06:19;98360.63;;;0.63;48.27
63285;BME280;49409;55.708;37.522;2023-03-13T04:08:44;98364.09;;;0.63;48.26
63285;BME280;49409;55.708;37.522;2023-03-13T04:11:09;98364.50;;;0.65;48.28
63285;BME280;49409;55.708;37.522;2023-03-13T04:13:35;98367.63;;;0.67;48.28
63285;BME280;49409;55.708;37.522;2023-03-13T04:16:05;98361.41;;;0.67;48.14
63285;BME280;49409;55.708;37.522;2023-03-13T04:18:30;98376.84;;;0.63;48.20
63285;BME280;49409;55.708;37.522;2023-03-13T04:20:59;98378.47;;;0.67;48.36
63285;BME280;49409;55.708;37.522;2023-03-13T04:23:25;98375.75;;;0.71;48.28
63285;BME280;49409;55.708;37.522;2023-03-13T04:25:51;98389.28;;;0.71;48.19
63285;BME280;49409;55.708;37.522;2023-03-13T04:28:16;98384.28;;;0.73;48.07
63285;BME280;49409;55.708;37.522;2023-03-13T04:30:41;98395.50;;;0.71;48.08
63285;BME280;49409;55.708;37.522;2023-03-13T04:33:06;98400.13;;;0.67;48.27
63285;BME280;49409;55.708;37.522;2023-03-13T04:35:32;98402.88;;;0.74;48.50
63285;BME280;49409;55.708;37.522;2023-03-13T04:37:57;98412.25;;;0.88;48.49
63285;BME280;49409;55.708;37.522;2023-03-13T04:40:25;98420.50;;;1.06;48.18
63285;BME280;49409;55.708;37.522;2023-03-13T04:42:50;98434.94;;;1.21;48.10
63285;BME280;49409;55.708;37.522;2023-03-13T04:45:15;98437.75;;;1.35;47.99
63285;BME280;49409;55.708;37.522;2023-03-13T04:47:41;98433.19;;;1.50;47.21
63285;BME280;49409;55.708;37.522;2023-03-13T04:50:06;98439.03;;;1.59;48.14
63285;BME280;49409;55.708;37.522;2023-03-13T04:52:31;98434.03;;;1.65;47.63
63285;BME280;49409;55.708;37.522;2023-03-13T04:54:57;98451.13;;;1.72;47.36
63285;BME280;49409;55.708;37.522;2023-03-13T04:57:22;98442.59;;;1.70;47.68
63285;BME280;49409;55.708;37.522;2023-03-13T04:59:47;98450.34;;;1.75;47.57
63285;BME280;49409;55.708;37.522;2023-03-13T05:02:13;98457.38;;;1.80;47.82
63285;BME280;49409;55.708;37.522;2023-03-13T05:04:38;98452.38;;;1.93;47.07
63285;BME280;49409;55.708;37.522;2023-03-13T05:07:03;98467.53;;;2.01;47.42
63285;BME280;49409;55.708;37.522;2023-03-13T05:09:29;98465.19;;;2.03;47.04
63285;BME280;49409;55.708;37.522;2023-03-13T05:11:54;98466.00;;;2.04;47.42
63285;BME280;49409;55.708;37.522;2023-03-13T05:14:19;98472.19;;;2.04;46.73
63285;BME280;49409;55.708;37.522;2023-03-13T05:16:45;98483.81;;;2.01;46.64
63285;BME280;49409;55.708;37.522;2023-03-13T05:19:10;98483.06;;;2.04;46.97
63285;BME280;49409;55.708;37.522;2023-03-13T05:21:35;98489.25;;;2.08;47.34
63285;BME280;49409;55.708;37.522;2023-03-13T05:24:01;98492.41;;;2.14;46.91
63285;BME280;49409;55.708;37.522;2023-03-13T05:26:26;98503.28;;;2.17;46.76
63285;BME280;49409;55.708;37.522;2023-03-13T05:28:52;98503.28;;;2.25;46.58
63285;BME280;49409;55.708;37.522;2023-03-13T05:31:17;98505.22;;;2.24;45.89
63285;BME280;49409;55.708;37.522;2023-03-13T05:33:42;98508.34;;;2.26;46.86
63285;BME280;49409;55.708;37.522;2023-03-13T05:36:08;98509.50;;;2.32;46.59
63285;BME280;49409;55.708;37.522;2023-03-13T05:38:33;98506.81;;;2.36;46.29
63285;BME280;49409;55.708;37.522;2023-03-13T05:40:58;98505.69;;;2.44;46.75
63285;BME280;49409;55.708;37.522;2023-03-13T05:43:24;98512.31;;;2.57;47.11
63285;BME280;49409;55.708;37.522;2023-03-13T05:45:49;98515.44;;;2.74;46.63
63285;BME280;49409;55.708;37.522;2023-03-13T05:48:14;98506.94;;;2.86;46.01
63285;BME280;49409;55.708;37.522;2023-03-13T05:50:40;98504.25;;;3.04;45.72
63285;BME280;49409;55.708;37.522;2023-03-13T05:53:05;98512.81;;;3.24;46.05
63285;BME280;49409;55.708;37.522;2023-03-13T05:55:30;98525.22;;;3.40;45.69
63285;BME280;49409;55.708;37.522;2023-03-13T05:57:56;98515.50;;;3.49;45.61
63285;BME280;49409;55.708;37.522;2023-03-13T06:00:21;98518.22;;;3.64;45.72
63285;BME280;49409;55.708;37.522;2023-03-13T06:02:46;98524.00;;;3.76;45.59
63285;BME280;49409;55.708;37.522;2023-03-13T06:05:12;98529.78;;;3.93;45.38
63285;BME280;49409;55.708;37.522;2023-03-13T06:07:37;98531.69;;;4.10;45.49
63285;BME280;49409;55.708;37.522;2023-03-13T06:10:03;98533.97;;;4.26;44.88
63285;BME280;49409;55.708;37.522;2023-03-13T06:12:28;98537.44;;;4.37;44.60
63285;BME280;49409;55.708;37.522;2023-03-13T06:14:53;98537.00;;;4.53;44.28
63285;BME280;49409;55.708;37.522;2023-03-13T06:17:19;98540.44;;;4.65;44.65
63285;BME280;49409;55.708;37.522;2023-03-13T06:19:45;98538.06;;;4.74;43.92
63285;BME280;49409;55.708;37.522;2023-03-13T06:22:10;98548.16;;;4.81;43.58
63285;BME280;49409;55.708;37.522;2023-03-13T06:24:35;98548.53;;;4.79;43.40
63285;BME280;49409;55.708;37.522;2023-03-13T06:27:01;98550.88;;;4.81;43.17
63285;BME280;49409;55.708;37.522;2023-03-13T06:29:26;98556.63;;;4.93;43.76
63285;BME280;49409;55.708;37.522;2023-03-13T06:31:51;98559.22;;;5.15;43.26
63285;BME280;49409;55.708;37.522;2023-03-13T06:34:18;98566.16;;;5.27;42.50
63285;BME280;49409;55.708;37.522;2023-03-13T06:36:43;98571.16;;;5.39;41.59
63285;BME280;49409;55.708;37.522;2023-03-13T06:39:10;98575.44;;;5.33;42.79
63285;BME280;49409;55.708;37.522;2023-03-13T06:44:22;98588.16;;;5.57;42.02
63285;BME280;49409;55.708;37.522;2023-03-13T06:46:47;98584.94;;;5.66;42.68
63285;BME280;49409;55.708;37.522;2023-03-13T06:49:13;98588.03;;;5.72;42.65
63285;BME280;49409;55.708;37.522;2023-03-13T06:51:38;98586.44;;;5.74;42.14
63285;BME280;49409;55.708;37.522;2023-03-13T06:54:03;98591.03;;;5.85;42.15
63285;BME280;49409;55.708;37.522;2023-03-13T06:56:29;98592.16;;;5.91;42.15
63285;BME280;49409;55.708;37.522;2023-03-13T06:58:54;98592.84;;;6.02;42.01
63285;BME280;49409;55.708;37.522;2023-03-13T07:01:19;98603.34;;;6.07;41.49
63285;BME280;49409;55.708;37.522;2023-03-13T07:03:46;98594.25;;;6.18;41.03
63285;BME280;49409;55.708;37.522;2023-03-13T07:06:11;98584.34;;;6.31;41.16
63285;BME280;49409;55.708;37.522;2023-03-13T07:08:37;98604.94;;;6.39;41.23
63285;BME280;49409;55.708;37.522;2023-03-13T07:11:03;98602.94;;;6.43;40.10
63285;BME280;49409;55.708;37.522;2023-03-13T07:13:29;98607.53;;;6.53;40.39
63285;BME280;49409;55.708;37.522;2023-03-13T07:15:54;98612.50;;;6.62;40.50
63285;BME280;49409;55.708;37.522;2023-03-13T07:18:20;98619.84;;;6.69;40.91
63285;BME280;49409;55.708;37.522;2023-03-13T07:20:52;98619.22;;;6.88;40.17
63285;BME280;49409;55.708;37.522;2023-03-13T07:23:19;98625.59;;;7.09;40.14
63285;BME280;49409;55.708;37.522;2023-03-13T07:25:51;98630.03;;;7.26;40.13
63285;BME280;49409;55.708;37.522;2023-03-13T07:28:16;98633.41;;;7.38;38.35
63285;BME280;49409;55.708;37.522;2023-03-13T07:30:41;98626.50;;;7.29;39.34
63285;BME280;49409;55.708;37.522;2023-03-13T07:33:07;98647.97;;;7.31;38.67
63285;BME280;49409;55.708;37.522;2023-03-13T07:35:32;98655.59;;;7.16;39.90
63285;BME280;49409;55.708;37.522;2023-03-13T07:37:57;98660.19;;;6.92;39.51
63285;BME280;49409;55.708;37.522;2023-03-13T07:40:23;98659.50;;;6.84;39.69
63285;BME280;49409;55.708;37.522;2023-03-13T07:42:48;98659.38;;;6.95;39.69
63285;BME280;49409;55.708;37.522;2023-03-13T07:45:13;98666.41;;;6.96;39.57
63285;BME280;49409;55.708;37.522;2023-03-13T07:47:39;98673.44;;;6.97;40.00
63285;BME280;49409;55.708;37.522;2023-03-13T07:50:04;98683.94;;;6.99;40.10
63285;BME280;49409;55.708;37.522;2023-03-13T07:52:30;98679.94;;;7.07;40.04
63285;BME280;49409;55.708;37.522;2023-03-13T07:54:55;98676.38;;;7.10;40.05
63285;BME280;49409;55.708;37.522;2023-03-13T07:57:20;98678.03;;;7.04;38.81
63285;BME280;49409;55.708;37.522;2023-03-13T07:59:46;98675.84;;;6.91;39.45
63285;BME280;49409;55.708;37.522;2023-03-13T08:02:11;98674.25;;;6.94;39.50
63285;BME280;49409;55.708;37.522;2023-03-13T08:04:38;98681.31;;;6.91;40.00
63285;BME280;49409;55.708;37.522;2023-03-13T08:07:06;98689.91;;;6.90;39.07
63285;BME280;49409;55.708;37.522;2023-03-13T08:09:32;98685.69;;;6.85;39.32
63285;BME280;49409;55.708;37.522;2023-03-13T08:11:57;98693.88;;;6.85;39.94
63285;BME280;49409;55.708;37.522;2023-03-13T08:14:22;98679.09;;;6.79;39.34
63285;BME280;49409;55.708;37.522;2023-03-13T08:16:48;98693.13;;;6.81;39.12
63285;BME280;49409;55.708;37.522;2023-03-13T08:19:13;98687.66;;;6.81;39.55
63285;BME280;49409;55.708;37.522;2023-03-13T08:21:39;98686.78;;;6.91;39.35
63285;BME280;49409;55.708;37.522;2023-03-13T08:24:05;98697.22;;;7.00;39.08
63285;BME280;49409;55.708;37.522;2023-03-13T08:26:31;98692.81;;;7.10;39.39
63285;BME280;49409;55.708;37.522;2023-03-13T08:28:58;98696.56;;;7.23;39.33
63285;BME280;49409;55.708;37.522;2023-03-13T08:31:27;98694.13;;;7.29;39.32
63285;BME280;49409;55.708;37.522;2023-03-13T08:34:14;98704.16;;;7.39;38.52
63285;BME280;49409;55.708;37.522;2023-03-13T08:36:40;98699.53;;;7.32;38.74
63285;BME280;49409;55.708;37.522;2023-03-13T08:39:06;98694.06;;;7.32;39.01
63285;BME280;49409;55.708;37.522;2023-03-13T08:41:33;98705.13;;;7.25;38.44
63285;BME280;49409;55.708;37.522;2023-03-13T08:44:00;98702.47;;;7.18;39.03
63285;BME280;49409;55.708;37.522;2023-03-13T08:46:27;98709.28;;;7.03;38.35
63285;BME280;49409;55.708;37.522;2023-03-13T08:48:53;98722.34;;;6.91;38.98
63285;BME280;49409;55.708;37.522;2023-03-13T08:51:19;98725.06;;;6.91;39.16
63285;BME280;49409;55.708;37.522;2023-03-13T08:53:45;98724.81;;;7.13;38.50
63285;BME280;49409;55.708;37.522;2023-03-13T08:56:11;98740.53;;;7.05;39.03
63285;BME280;49409;55.708;37.522;2023-03-13T08:58:37;98735.66;;;7.20;38.72
63285;BME280;49409;55.708;37.522;2023-03-13T09:01:10;98740.28;;;7.27;38.63
63285;BME280;49409;55.708;37.522;2023-03-13T09:03:35;98735.06;;;7.36;38.39
63285;BME280;49409;55.708;37.522;2023-03-13T09:06:01;98742.56;;;7.32;39.10
63285;BME280;49409;55.708;37.522;2023-03-13T09:08:27;98751.97;;;7.31;39.17
63285;BME280;49409;55.708;37.522;2023-03-13T09:11:00;98745.81;;;7.23;38.80
63285;BME280;49409;55.708;37.522;2023-03-13T09:13:27;98745.47;;;7.18;39.19
63285;BME280;49409;55.708;37.522;2023-03-13T09:15:53;98761.22;;;7.06;38.90
63285;BME280;49409;55.708;37.522;2023-03-13T09:18:18;98761.69;;;7.01;39.18
63285;BME280;49409;55.708;37.522;2023-03-13T09:20:44;98768.81;;;6.91;39.28
63285;BME280;49409;55.708;37.522;2023-03-13T09:23:09;98769.25;;;6.86;39.45
63285;BME280;49409;55.708;37.522;2023-03-13T09:28:38;98771.56;;;6.91;39.07
63285;BME280;49409;55.708;37.522;2023-03-13T09:31:16;98774.84;;;6.75;39.20
63285;BME280;49409;55.708;37.522;2023-03-13T09:33:42;98763.41;;;6.84;39.66
63285;BME280;49409;55.708;37.522;2023-03-13T09:36:07;98768.75;;;6.95;39.83
63285;BME280;49409;55.708;37.522;2023-03-13T09:38:33;98767.78;;;7.12;39.49
63285;BME280;49409;55.708;37.522;2023-03-13T09:41:19;98770.81;;;7.22;39.33
63285;BME280;49409;55.708;37.522;2023-03-13T09:49:02;98786.31;;;7.35;39.62
63285;BME280;49409;55.708;37.522;2023-03-13T09:51:35;98783.03;;;7.48;39.54
63285;BME280;49409;55.708;37.522;2023-03-13T09:54:04;98797.91;;;7.47;39.20
63285;BME280;49409;55.708;37.522;2023-03-13T09:56:49;98787.03;;;7.40;39.85
63285;BME280;49409;55.708;37.522;2023-03-13T09:59:18;98794.75;;;7.48;39.93
63285;BME280;49409;55.708;37.522;2023-03-13T10:01:46;98803.34;;;7.50;39.81
63285;BME280;49409;55.708;37.522;2023-03-13T10:06:57;98810.75;;;7.19;39.50
63285;BME280;49409;55.708;37.522;2023-03-13T10:09:28;98801.91;;;7.04;40.19
63285;BME280;49409;55.708;37.522;2023-03-13T10:14:21;98813.22;;;7.03;39.82
63285;BME280;49409;55.708;37.522;2023-03-13T10:16:53;98813.00;;;6.86;40.21
63285;BME280;49409;55.708;37.522;2023-03-13T10:19:39;98808.78;;;6.78;40.10
63285;BME280;49409;55.708;37.522;2023-03-13T10:22:11;98816.69;;;6.69;40.44
63285;BME280;49409;55.708;37.522;2023-03-13T10:27:47;98833.34;;;6.37;40.58
63285;BME280;49409;55.708;37.522;2023-03-13T10:30:21;98830.63;;;6.33;40.53
63285;BME280;49409;55.708;37.522;2023-03-13T10:32:48;98828.66;;;6.33;40.46
63285;BME280;49409;55.708;37.522;2023-03-13T10:35:19;98844.22;;;6.44;40.71
63285;BME280;49409;55.708;37.522;2023-03-13T10:37:45;98840.63;;;6.58;40.51
63285;BME280;49409;55.708;37.522;2023-03-13T10:40:11;98845.97;;;6.72;40.48
63285;BME280;49409;55.708;37.522;2023-03-13T10:42:37;98827.34;;;7.01;40.06
63285;BME280;49409;55.708;37.522;2023-03-13T10:45:12;98847.31;;;7.32;39.65
63285;BME280;49409;55.708;37.522;2023-03-13T10:47:38;98838.28;;;7.39;39.61
63285;BME280;49409;55.708;37.522;2023-03-13T10:50:04;98838.72;;;7.34;39.37
63285;BME280;49409;55.708;37.522;2023-03-13T10:54:58;98862.56;;;6.95;39.37
63285;BME280;49409;55.708;37.522;2023-03-13T10:59:49;98865.97;;;6.62;40.02
63285;BME280;49409;55.708;37.522;2023-03-13T11:02:22;98883.56;;;6.53;40.14
63285;BME280;49409;55.708;37.522;2023-03-13T11:04:47;98883.56;;;6.53;40.04
63285;BME280;49409;55.708;37.522;2023-03-13T11:07:25;98891.75;;;6.57;40.22
63285;BME280;49409;55.708;37.522;2023-03-13T11:09:57;98883.91;;;6.63;40.11
63285;BME280;49409;55.708;37.522;2023-03-13T11:12:24;98890.19;;;6.60;40.28
63285;BME280;49409;55.708;37.522;2023-03-13T11:15:00;98892.56;;;6.58;40.49
63285;BME280;49409;55.708;37.522;2023-03-13T11:17:33;98896.09;;;6.47;40.51
63285;BME280;49409;55.708;37.522;2023-03-13T11:25:27;98915.31;;;6.37;40.95
63285;BME280;49409;55.708;37.522;2023-03-13T11:28:17;98914.88;;;6.45;40.64
63285;BME280;49409;55.708;37.522;2023-03-13T11:38:18;98928.47;;;6.60;40.72
63285;BME280;49409;55.708;37.522;2023-03-13T11:40:52;98938.56;;;6.63;40.73
63285;BME280;49409;55.708;37.522;2023-03-13T11:45:55;98932.47;;;6.44;41.28
63285;BME280;49409;55.708;37.522;2023-03-13T11:48:35;98933.97;;;6.52;40.97
63285;BME280;49409;55.708;37.522;2023-03-13T11:54:02;98937.00;;;6.65;41.13
63285;BME280;49409;55.708;37.522;2023-03-13T11:56:31;98947.13;;;6.72;41.26
63285;BME280;49409;55.708;37.522;2023-03-13T12:04:38;98959.34;;;7.09;41.28
63285;BME280;49409;55.708;37.522;2023-03-13T12:07:18;98964.78;;;7.12;41.15
63285;BME280;49409;55.708;37.522;2023-03-13T12:12:26;98964.13;;;6.98;41.24
63285;BME280;49409;55.708;37.522;2023-03-13T12:14:58;98965.66;;;6.99;41.45
63285;BME280;49409;55.708;37.522;2023-03-13T12:20:03;98964.94;;;6.91;41.60
63285;BME280;49409;55.708;37.522;2023-03-13T12:25:22;98957.19;;;6.86;41.81
63285;BME280;49409;55.708;37.522;2023-03-13T12:27:50;98968.03;;;6.97;41.65
63285;BME280;49409;55.708;37.522;2023-03-13T12:35:26;98968.47;;;6.91;41.43
63285;BME280;49409;55.708;37.522;2023-03-13T12:40:46;98975.59;;;6.78;40.65
63285;BME280;49409;55.708;37.522;2023-03-13T12:46:04;98982.97;;;6.81;40.37
63285;BME280;49409;55.708;37.522;2023-03-13T12:51:09;98984.50;;;6.89;40.57
63285;BME280;49409;55.708;37.522;2023-03-13T12:53:43;98985.31;;;6.86;40.51
63285;BME280;49409;55.708;37.522;2023-03-13T12:58:41;98986.13;;;6.80;39.92
63285;BME280;49409;55.708;37.522;2023-03-13T13:01:12;98984.53;;;6.82;40.41
63285;BME280;49409;55.708;37.522;2023-03-13T13:03:55;99001.06;;;6.68;40.39
63285;BME280;49409;55.708;37.522;2023-03-13T13:06:22;98998.84;;;6.38;40.51
63285;BME280;49409;55.708;37.522;2023-03-13T13:14:01;99007.56;;;5.93;41.08
63285;BME280;49409;55.708;37.522;2023-03-13T13:16:27;99007.63;;;5.75;41.23
63285;BME280;49409;55.708;37.522;2023-03-13T13:18:53;99009.16;;;5.72;41.40
63285;BME280;49409;55.708;37.522;2023-03-13T13:21:19;99008.00;;;5.70;41.61
63285;BME280;49409;55.708;37.522;2023-03-13T13:23:45;99019.31;;;5.68;41.62
63285;BME280;49409;55.708;37.522;2023-03-13T13:28:57;99013.88;;;5.54;41.54
63285;BME280;49409;55.708;37.522;2023-03-13T13:34:07;99020.91;;;5.55;41.37
63285;BME280;49409;55.708;37.522;2023-03-13T13:36:41;99026.75;;;5.57;40.38
63285;BME280;49409;55.708;37.522;2023-03-13T13:39:20;99022.84;;;5.36;40.10
63285;BME280;49409;55.708;37.522;2023-03-13T13:41:46;99032.59;;;5.41;40.25
63285;BME280;49409;55.708;37.522;2023-03-13T13:44:25;99029.84;;;5.45;40.68
63285;BME280;49409;55.708;37.522;2023-03-13T13:46:51;99024.00;;;5.53;40.68
63285;BME280;49409;55.708;37.522;2023-03-13T13:49:20;99031.03;;;5.65;40.52
63285;BME280;49409;55.708;37.522;2023-03-13T13:57:07;99025.53;;;5.76;39.75
63285;BME280;49409;55.708;37.522;2023-03-13T13:59:40;99034.91;;;5.75;40.03
63285;BME280;49409;55.708;37.522;2023-03-13T14:04:36;99043.47;;;5.84;39.43
63285;BME280;49409;55.708;37.522;2023-03-13T14:07:05;99048.53;;;5.82;39.95
63285;BME280;49409;55.708;37.522;2023-03-13T14:15:04;99054.81;;;5.65;39.51
63285;BME280;49409;55.708;37.522;2023-03-13T14:17:30;99043.09;;;5.64;39.76
63285;BME280;49409;55.708;37.522;2023-03-13T14:19:55;99047.00;;;5.70;39.64
63285;BME280;49409;55.708;37.522;2023-03-13T14:22:21;99054.41;;;5.77;39.81
63285;BME280;49409;55.708;37.522;2023-03-13T14:24:56;99058.28;;;5.72;39.79
63285;BME280;49409;55.708;37.522;2023-03-13T14:27:22;99060.25;;;5.72;39.25
63285;BME280;49409;55.708;37.522;2023-03-13T14:30:00;99059.09;;;5.73;39.72
63285;BME280;49409;55.708;37.522;2023-03-13T14:32:25;99061.03;;;5.72;39.37
63285;BME280;49409;55.708;37.522;2023-03-13T14:34:50;99068.84;;;5.81;39.69
63285;BME280;49409;55.708;37.522;2023-03-13T14:37:35;99071.56;;;5.85;39.61
63285;BME280;49409;55.708;37.522;2023-03-13T14:40:05;99072.34;;;5.74;38.56
63285;BME280;49409;55.708;37.522;2023-03-13T14:42:41;99068.06;;;5.73;39.19
63285;BME280;49409;55.708;37.522;2023-03-13T14:45:11;99090.28;;;5.72;39.63